Aviation Digital Data Service (ADDS)

Output produced by TAFs form (1603 UTC 21 September 2017)
found at http://www.aviationweather.gov/adds/tafs/
 
KRNH 211121Z 2112/2212 00000KT P6SM SKC 
     FM211400 11005KT P6SM SKC 
     FM211800 13010KT P6SM SKC 
     FM212200 14009KT P6SM BKN035 
     FM220200 16008KT P6SM SCT050 
     PROB30 2207/2212 -TSRA BKN050CB